ポンタ・デルガダ の空港の天気 - METARとTAF

ポンタ・デルガダ空港 ( LPPD / PDL ) - ポルトガル ポンタ・デルガダ (サンミゲル島)
飛行場実況気象(Metar)
観測時間07/16 06:30 AZOST (07/16 06:30 UTC)
風向・風速北 3m/s
視程10km以上
天気現象
少しの雲 雲底高度 550m
気温17℃
湿度83%
気圧1028hPa
METARLPPD 160630Z 35005KT 9999 FEW018 17/14 Q1028
過去の天気等 Google飛行場航空写真 Wunderground天気予報

過去48時間のMETAR

飛行場予報(TAF)
発表時間: 7/16 05:00 AZOST (7/16 05:00 UTC)
予報対象時間: 16日6時 AZOST ~ 17日6時 AZOST
風向・風速北北東 5m/s
視程10km以上
少しの雲 雲底高度 460m
全天の4割程度の雲 雲底高度 1070m
16日6時 AZOST ~ 17日6時 AZOST に一時的に
全天の4割程度の雲 雲底高度 610m
16日6時 AZOST ~ 16日18時 AZOST に 確率 40% で一時的に
風向・風速北北東 8m/s 瞬間風速 13m/s
TAF LPPD 160500Z 1606/1706 02010KT 9999 FEW015 SCT035
TEMPO 1606/1706 SCT020
PROB40 TEMPO 1606/1618 03015G25KT